Thunder radar more information blitzortung!


Radar de pluja more information rain snow radar


Visita la nostra xarxa de llocs de meteo:

Template documentation
and downloads

And another site



No particular awareness of the weather is required.    There are no Weather-warnings

Pagina Historial Weather Underground text

Diari Resum Juny 3, 2017 Unitats:  Mètric    Imperial   Tant
« Previous Dia
SegĂźent Dia »
Diari Setmana Mensual Anual Personalitzada
  Maxima: Minima: Media:
Temperatura: 27.2 °C 17.9 °C 22.9 °C
Punt de rosada: 17.7 °C 10.3 °C 14.4 °C
Humitat: 76 % 43 % 60 %
Wind Speed: 13.0 km/h 0.0 km/h 5 km/h
RĂ fegues de vent: 13.0 km/h - -
Vent:- - SSW
Pression baro: 1016.8 hPa 1011.7 hPa -
Precipitacions: 0.0 mm    
Historical Graphs
 
 
Dades de taula per Juny 3, 2017
Temps Temperatura Punt de rosada Pression baro Vent Wind Speed RĂ fegues de vent Humitat Rainfall Rate (Hourly)
00:02 20.7 °C 13.4 °C 1015.8 hPa WSW 3.7 km/h 3.7 km/h 63 % 0.0 mm
04:30 21.7 °C 16.2 °C 1014.8 hPa SSW 4.8 km/h 6.4 km/h 71 % 0.0 mm
04:40 22.1 °C 16.4 °C 1014.8 hPa SW 3.2 km/h 6.4 km/h 70 % 0.0 mm
04:50 23.1 °C 17.1 °C 1014.8 hPa WSW 1.6 km/h 3.2 km/h 69 % 0.0 mm
05:00 24.0 °C 17.3 °C 1014.8 hPa WSW 3.2 km/h 4.8 km/h 66 % 0.0 mm
05:10 24.2 °C 17.2 °C 1014.8 hPa SW 1.6 km/h 6.4 km/h 65 % 0.0 mm
05:20 23.9 °C 17.2 °C 1014.8 hPa Calm   1.6 km/h 66 % 0.0 mm
05:30 23.1 °C 16.6 °C 1014.8 hPa South 3.2 km/h 6.4 km/h 67 % 0.0 mm
05:40 22.8 °C 17.1 °C 1013.8 hPa SSW 1.6 km/h 3.2 km/h 70 % 0.0 mm
05:50 23.0 °C 16.8 °C 1013.8 hPa SW 3.2 km/h 4.8 km/h 68 % 0.0 mm
06:00 23.1 °C 16.9 °C 1014.8 hPa SW 4.8 km/h 6.4 km/h 68 % 0.0 mm
06:10 23.4 °C 16.9 °C 1014.8 hPa WSW 1.6 km/h 4.8 km/h 67 % 0.0 mm
06:20 23.4 °C 16.9 °C 1014.8 hPa SW 3.2 km/h 9.7 km/h 67 % 0.0 mm
06:30 23.2 °C 16.9 °C 1015.8 hPa WSW 8.0 km/h 8.0 km/h 68 % 0.0 mm
06:40 23.1 °C 17.1 °C 1014.8 hPa WSW 4.8 km/h 6.4 km/h 69 % 0.0 mm
06:50 23.3 °C 17.1 °C 1014.8 hPa WSW 3.2 km/h 6.4 km/h 68 % 0.0 mm
07:00 23.7 °C 16.5 °C 1014.8 hPa SW 8.0 km/h 8.0 km/h 64 % 0.0 mm
12:01 23.7 °C 16.5 °C 1014.8 hPa SSW 9.3 km/h 9.3 km/h 64 % 0.0 mm
12:06 23.6 °C 16.2 °C 1015.8 hPa SSW 13.0 km/h 13.0 km/h 63 % 0.0 mm
12:11 23.5 °C 16.1 °C 1015.8 hPa WSW 9.3 km/h 9.3 km/h 63 % 0.0 mm
12:16 23.4 °C 15.7 °C 1015.8 hPa SW 13.0 km/h 13.0 km/h 62 % 0.0 mm
12:21 23.5 °C 15.8 °C 1014.8 hPa SSW 7.9 km/h 7.9 km/h 62 % 0.0 mm
12:26 23.5 °C 15.6 °C 1014.8 hPa SW 11.1 km/h 11.1 km/h 61 % 0.0 mm
12:31 23.5 °C 15.3 °C 1014.8 hPa SSE 5.6 km/h 5.6 km/h 60 % 0.0 mm
12:36 23.4 °C 15.2 °C 1014.8 hPa WSW 5.6 km/h 5.8 km/h 60 % 0.0 mm
12:41 23.1 °C 15.4 °C 1014.8 hPa NW 5.6 km/h 5.6 km/h 62 % 0.0 mm
12:46 22.5 °C 14.8 °C 1014.8 hPa WSW 6.9 km/h 6.9 km/h 62 % 0.0 mm
12:51 22.3 °C 15.2 °C 1014.8 hPa SSW 3.9 km/h 3.9 km/h 64 % 0.0 mm
12:56 22.0 °C 15.1 °C 1014.8 hPa West 4.7 km/h 4.7 km/h 65 % 0.0 mm
13:01 21.8 °C 14.9 °C 1014.8 hPa WSW 6.1 km/h 6.1 km/h 65 % 0.0 mm
13:06 21.5 °C 14.7 °C 1014.8 hPa WSW 9.3 km/h 9.3 km/h 65 % 0.0 mm
13:11 21.4 °C 15.5 °C 1014.8 hPa South 1.9 km/h 1.9 km/h 69 % 0.0 mm
13:16 21.2 °C 15.3 °C 1014.8 hPa WSW 5.6 km/h 5.6 km/h 69 % 0.0 mm
13:21 21.1 °C 15.2 °C 1014.8 hPa SW 5.6 km/h 5.6 km/h 69 % 0.0 mm
13:26 21.2 °C 15.5 °C 1014.8 hPa WSW 5.6 km/h 5.6 km/h 70 % 0.0 mm
13:31 21.4 °C 15.9 °C 1014.8 hPa SSW 3.9 km/h 4.2 km/h 71 % 0.0 mm
13:36 21.4 °C 15.7 °C 1014.8 hPa SSW 5.6 km/h 5.6 km/h 70 % 0.0 mm
13:41 21.5 °C 15.8 °C 1014.8 hPa WSW 5.6 km/h 5.6 km/h 70 % 0.0 mm
13:46 21.7 °C 16.0 °C 1014.8 hPa WSW 3.7 km/h 3.7 km/h 70 % 0.0 mm
13:51 22.0 °C 16.1 °C 1014.8 hPa WSW 3.7 km/h 3.7 km/h 69 % 0.0 mm
13:56 22.0 °C 16.1 °C 1014.8 hPa WSW 5.6 km/h 5.6 km/h 69 % 0.0 mm
14:01 22.0 °C 16.3 °C 1014.8 hPa WSW 9.0 km/h 9.0 km/h 70 % 0.0 mm
14:06 21.8 °C 16.3 °C 1015.8 hPa West 9.0 km/h 9.0 km/h 71 % 0.0 mm
14:11 21.8 °C 16.3 °C 1015.8 hPa SW 5.6 km/h 5.6 km/h 71 % 0.0 mm
14:21 22.0 °C 16.5 °C 1015.8 hPa SW 3.7 km/h 3.7 km/h 71 % 0.0 mm
14:26 22.2 °C 16.7 °C 1015.8 hPa SW 5.6 km/h 5.6 km/h 71 % 0.0 mm
14:31 22.4 °C 16.9 °C 1015.8 hPa SW 4.7 km/h 4.7 km/h 71 % 0.0 mm
14:36 22.4 °C 16.9 °C 1015.8 hPa SW 3.7 km/h 3.9 km/h 71 % 0.0 mm
14:41 22.4 °C 17.1 °C 1015.8 hPa WSW 3.7 km/h   72 % 0.0 mm
14:46 22.4 °C 17.1 °C 1015.8 hPa SW 3.9 km/h 3.9 km/h 72 % 0.0 mm
14:51 22.3 °C 17.0 °C 1015.8 hPa SW 7.9 km/h 7.9 km/h 72 % 0.0 mm
14:56 22.4 °C 17.3 °C 1015.8 hPa SSW 3.7 km/h 3.7 km/h 73 % 0.0 mm
15:01 22.6 °C 17.5 °C 1015.8 hPa WSW 5.6 km/h 5.6 km/h 73 % 0.0 mm
15:06 22.8 °C 17.7 °C 1015.8 hPa West 5.6 km/h 5.6 km/h 73 % 0.0 mm
15:11 23.0 °C 17.2 °C 1015.8 hPa SW 9.0 km/h 9.0 km/h 70 % 0.0 mm
15:16 23.0 °C 16.8 °C 1015.8 hPa WSW 7.4 km/h 7.4 km/h 68 % 0.0 mm
15:21 22.9 °C 16.4 °C 1015.8 hPa West 7.4 km/h 7.4 km/h 67 % 0.0 mm
15:27 23.0 °C 16.6 °C 1015.8 hPa West 4.2 km/h 4.2 km/h 67 % 0.0 mm
15:32 22.9 °C 16.4 °C 1015.8 hPa WSW 3.7 km/h 3.7 km/h 67 % 0.0 mm
15:37 22.8 °C 16.1 °C 1014.8 hPa West 3.9 km/h 3.9 km/h 66 % 0.0 mm
15:42 22.8 °C 15.9 °C 1014.8 hPa WSW 5.6 km/h 5.6 km/h 65 % 0.0 mm
15:47 22.9 °C 15.9 °C 1014.8 hPa South 3.7 km/h 3.7 km/h 65 % 0.0 mm
15:52 22.9 °C 15.9 °C 1014.8 hPa West 5.6 km/h 5.6 km/h 65 % 0.0 mm
15:57 22.9 °C 15.7 °C 1014.8 hPa WNW 3.7 km/h 3.7 km/h 64 % 0.0 mm
16:02 23.0 °C 15.6 °C 1014.8 hPa NNW 3.7 km/h 3.7 km/h 63 % 0.0 mm
16:07 23.5 °C 15.8 °C 1013.8 hPa ENE 3.7 km/h 3.7 km/h 62 % 0.0 mm
16:12 23.6 °C 15.6 °C 1013.8 hPa NW 6.4 km/h 6.4 km/h 61 % 0.0 mm
16:17 23.5 °C 15.3 °C 1013.8 hPa ENE 5.6 km/h 5.6 km/h 60 % 0.0 mm
16:22 23.6 °C 15.4 °C 1013.8 hPa NNE 5.0 km/h 5.0 km/h 60 % 0.0 mm
16:27 24.1 °C 15.6 °C 1013.8 hPa NW 3.9 km/h 3.9 km/h 59 % 0.0 mm
16:32 24.6 °C 16.1 °C 1013.8 hPa SW 5.6 km/h 5.6 km/h 59 % 0.0 mm
16:37 25.1 °C 15.7 °C 1013.8 hPa WSW 5.6 km/h 5.6 km/h 56 % 0.0 mm
16:42 25.3 °C 15.6 °C 1013.8 hPa WNW 7.4 km/h 7.4 km/h 55 % 0.0 mm
16:47 25.3 °C 15.6 °C 1013.8 hPa North 3.9 km/h   55 % 0.0 mm
16:52 25.0 °C 15.3 °C 1013.8 hPa ESE 3.7 km/h 3.7 km/h 55 % 0.0 mm
16:57 25.3 °C 15.3 °C 1013.8 hPa SW 3.9 km/h 3.9 km/h 54 % 0.0 mm
17:02 25.0 °C 14.8 °C 1013.8 hPa South 3.7 km/h 3.7 km/h 53 % 0.0 mm
17:07 25.3 °C 15.1 °C 1013.8 hPa WSW 10.0 km/h   53 % 0.0 mm
17:12 25.5 °C 15.2 °C 1013.8 hPa WSW 5.6 km/h 5.6 km/h 53 % 0.0 mm
17:17 25.7 °C 15.4 °C 1013.8 hPa WSW 5.6 km/h 5.6 km/h 53 % 0.0 mm
17:22 25.8 °C 15.5 °C 1012.8 hPa WSW 3.7 km/h 3.9 km/h 53 % 0.0 mm
17:27 25.6 °C 15.3 °C 1012.8 hPa NW 3.7 km/h 3.7 km/h 53 % 0.0 mm
17:32 25.6 °C 15.3 °C 1012.8 hPa West 5.6 km/h 5.6 km/h 53 % 0.0 mm
17:37 25.6 °C 15.3 °C 1012.8 hPa SW 5.6 km/h 5.6 km/h 53 % 0.0 mm
17:42 25.6 °C 15.0 °C 1012.8 hPa West 5.6 km/h 5.6 km/h 52 % 0.0 mm
17:47 26.0 °C 15.4 °C 1012.8 hPa West 8.7 km/h 8.7 km/h 52 % 0.0 mm
17:52 26.3 °C 15.7 °C 1012.8 hPa SW 5.6 km/h 5.6 km/h 52 % 0.0 mm
17:57 26.5 °C 15.8 °C 1012.8 hPa Calm     52 % 0.0 mm
18:02 26.9 °C 15.9 °C 1012.8 hPa SW 3.7 km/h 3.7 km/h 51 % 0.0 mm
18:04 26.9 °C 15.9 °C 1012.8 hPa West 5.6 km/h 5.6 km/h 51 % 0.0 mm
18:09 26.9 °C 15.6 °C 1012.8 hPa SW 3.7 km/h 3.9 km/h 50 % 0.0 mm
18:14 26.9 °C 15.6 °C 1012.8 hPa SW 7.4 km/h 7.4 km/h 50 % 0.0 mm
18:19 26.5 °C 15.2 °C 1011.7 hPa SW 5.6 km/h 5.6 km/h 50 % 0.0 mm
18:24 26.5 °C 15.2 °C 1011.7 hPa West 5.6 km/h 5.6 km/h 50 % 0.0 mm
18:29 26.6 °C 15.0 °C 1011.7 hPa SW 5.6 km/h 5.6 km/h 49 % 0.0 mm
18:34 26.8 °C 15.2 °C 1011.7 hPa SW 3.7 km/h 3.7 km/h 49 % 0.0 mm
18:39 26.8 °C 14.9 °C 1011.7 hPa WSW 9.3 km/h 9.3 km/h 48 % 0.0 mm
18:44 26.9 °C 14.6 °C 1011.7 hPa West 5.6 km/h 5.6 km/h 47 % 0.0 mm
18:49 27.1 °C 14.5 °C 1011.7 hPa West 5.6 km/h 5.6 km/h 46 % 0.0 mm
18:54 27.2 °C 14.6 °C 1011.7 hPa SSW 9.3 km/h 9.3 km/h 46 % 0.0 mm
18:59 26.9 °C 13.9 °C 1011.7 hPa SSE 9.3 km/h 9.3 km/h 45 % 0.0 mm
19:04 26.9 °C 13.9 °C 1012.8 hPa SSW 7.4 km/h 7.4 km/h 45 % 0.0 mm
19:09 26.9 °C 13.6 °C 1012.8 hPa WSW 7.4 km/h 7.4 km/h 44 % 0.0 mm
19:10 20.0 °C 10.4 °C 1016.8 hPa NE 3.2 km/h 3.2 km/h 54 % 0.0 mm
19:14 26.6 °C 13.0 °C 1012.8 hPa South 9.3 km/h 9.3 km/h 43 % 0.0 mm
19:19 26.7 °C 13.4 °C 1012.8 hPa SW 6.4 km/h 6.4 km/h 44 % 0.0 mm
19:20 19.9 °C 11.7 °C 1016.8 hPa NE 3.2 km/h 6.4 km/h 59 % 0.0 mm
19:24 26.5 °C 12.9 °C 1012.8 hPa South 9.7 km/h 9.7 km/h 43 % 0.0 mm
19:29 26.4 °C 12.8 °C 1012.8 hPa SW 5.6 km/h 5.6 km/h 43 % 0.0 mm
19:30 19.7 °C 12.7 °C 1016.8 hPa ENE 3.2 km/h 6.4 km/h 64 % 0.0 mm
19:39 26.2 °C 12.6 °C 1013.8 hPa SW 5.6 km/h 5.6 km/h 43 % 0.0 mm
19:40 19.5 °C 13.2 °C 1016.8 hPa ENE 4.8 km/h 4.8 km/h 67 % 0.0 mm
19:44 26.0 °C 12.8 °C 1013.8 hPa SSW 7.4 km/h 7.4 km/h 44 % 0.0 mm
19:49 25.8 °C 12.6 °C 1013.8 hPa SW 5.6 km/h 5.6 km/h 44 % 0.0 mm
19:50 19.3 °C 13.4 °C 1016.8 hPa ENE 4.8 km/h 6.4 km/h 69 % 0.0 mm
19:54 25.6 °C 12.4 °C 1013.8 hPa SW 7.4 km/h 7.4 km/h 44 % 0.0 mm
19:59 25.4 °C 12.3 °C 1013.8 hPa South 9.3 km/h 9.3 km/h 44 % 0.0 mm
20:00 19.2 °C 13.8 °C 1016.8 hPa ENE 1.6 km/h 9.7 km/h 71 % 0.0 mm
20:04 25.2 °C 12.4 °C 1013.8 hPa WSW 5.6 km/h 5.6 km/h 45 % 0.0 mm
20:09 25.0 °C 12.2 °C 1013.8 hPa SW 5.8 km/h 5.8 km/h 45 % 0.0 mm
20:10 19.0 °C 13.8 °C 1016.8 hPa NE 4.8 km/h 6.4 km/h 72 % 0.0 mm
20:14 24.8 °C 12.4 °C 1013.8 hPa SW 7.4 km/h 7.4 km/h 46 % 0.0 mm
20:19 24.7 °C 12.6 °C 1013.8 hPa SW 3.7 km/h 3.7 km/h 47 % 0.0 mm
20:20 19.0 °C 13.8 °C 1016.8 hPa ENE 4.8 km/h 9.7 km/h 72 % 0.0 mm
20:24 24.6 °C 12.6 °C 1013.8 hPa SW 5.6 km/h 5.6 km/h 47 % 0.0 mm
20:29 24.5 °C 12.8 °C 1013.8 hPa SW 2.6 km/h   48 % 0.0 mm
20:30 18.9 °C 14.2 °C 1016.8 hPa NE 4.8 km/h 6.4 km/h 74 % 0.0 mm
20:34 24.3 °C 12.6 °C 1013.8 hPa SSW 7.4 km/h 7.4 km/h 48 % 0.0 mm
20:39 24.1 °C 12.7 °C 1013.8 hPa WSW 5.6 km/h 6.1 km/h 49 % 0.0 mm
20:40 18.9 °C 14.4 °C 1016.8 hPa NE 4.8 km/h 6.4 km/h 75 % 0.0 mm
20:44 24.1 °C 12.7 °C 1013.8 hPa WSW 5.6 km/h 5.6 km/h 49 % 0.0 mm
20:49 24.0 °C 12.9 °C 1013.8 hPa SW 5.6 km/h 5.6 km/h 50 % 0.0 mm
20:50 18.9 °C 14.2 °C 1016.8 hPa ENE 4.8 km/h 4.8 km/h 74 % 0.0 mm
20:54 23.9 °C 12.8 °C 1013.8 hPa WSW 4.7 km/h 4.7 km/h 50 % 0.0 mm
20:59 23.7 °C 12.9 °C 1013.8 hPa West 3.9 km/h 3.9 km/h 51 % 0.0 mm
21:00 18.8 °C 14.3 °C 1016.8 hPa ENE 3.2 km/h 4.8 km/h 75 % 0.0 mm
21:04 23.6 °C 12.9 °C 1013.8 hPa SSW 3.7 km/h 3.7 km/h 51 % 0.0 mm
21:09 23.5 °C 12.8 °C 1013.8 hPa WSW 5.6 km/h 5.6 km/h 51 % 0.0 mm
21:10 18.7 °C 14.2 °C 1016.8 hPa ENE 1.6 km/h 4.8 km/h 75 % 0.0 mm
21:14 23.3 °C 12.9 °C 1013.8 hPa SSW 5.8 km/h 5.8 km/h 52 % 0.0 mm
21:19 23.3 °C 12.9 °C 1013.8 hPa WSW 9.3 km/h 9.3 km/h 52 % 0.0 mm
21:20 18.8 °C 14.3 °C 1016.8 hPa ENE 4.8 km/h 4.8 km/h 75 % 0.0 mm
21:24 23.2 °C 13.1 °C 1013.8 hPa WSW 5.6 km/h 5.6 km/h 53 % 0.0 mm
21:29 23.2 °C 13.1 °C 1013.8 hPa West 7.4 km/h 7.4 km/h 53 % 0.0 mm
21:30 18.9 °C 14.4 °C 1016.8 hPa ENE 3.2 km/h 4.8 km/h 75 % 0.0 mm
21:34 23.3 °C 13.2 °C 1014.8 hPa WNW 13.0 km/h 13.0 km/h 53 % 0.0 mm
21:39 23.0 °C 12.6 °C 1014.8 hPa WNW 13.0 km/h 13.0 km/h 52 % 0.0 mm
21:40 18.9 °C 14.6 °C 1016.8 hPa East 3.2 km/h 6.4 km/h 76 % 0.0 mm
21:44 22.9 °C 12.8 °C 1014.8 hPa West 7.4 km/h 7.4 km/h 53 % 0.0 mm
21:49 22.7 °C 12.3 °C 1014.8 hPa WSW 9.3 km/h 9.3 km/h 52 % 0.0 mm
21:50 18.9 °C 14.6 °C 1016.8 hPa East 1.6 km/h 3.2 km/h 76 % 0.0 mm
21:54 22.6 °C 12.2 °C 1014.8 hPa North 9.3 km/h 9.3 km/h 52 % 0.0 mm
21:59 22.4 °C 12.1 °C 1014.8 hPa WSW 7.4 km/h 7.4 km/h 52 % 0.0 mm
22:00 18.8 °C 14.5 °C 1016.8 hPa East 1.6 km/h 3.2 km/h 76 % 0.0 mm
22:04 22.3 °C 11.9 °C 1014.8 hPa NE 3.7 km/h 3.7 km/h 52 % 0.0 mm
22:09 22.2 °C 11.6 °C 1014.8 hPa ENE 5.6 km/h 5.6 km/h 51 % 0.0 mm
22:10 18.7 °C 14.2 °C 1016.8 hPa ENE 1.6 km/h 3.2 km/h 75 % 0.0 mm
22:14 22.1 °C 11.5 °C 1014.8 hPa NE 4.7 km/h 4.7 km/h 51 % 0.0 mm
22:19 22.0 °C 11.1 °C 1015.8 hPa SW 3.7 km/h 3.7 km/h 50 % 0.0 mm
22:20 18.6 °C 14.1 °C 1016.8 hPa Calm   1.6 km/h 75 % 0.0 mm
22:24 21.9 °C 11.3 °C 1015.8 hPa North 3.7 km/h 3.7 km/h 51 % 0.0 mm
22:29 21.9 °C 11.3 °C 1015.8 hPa SW 3.7 km/h 3.7 km/h 51 % 0.0 mm
22:30 18.5 °C 14.0 °C 1016.8 hPa Calm     75 % 0.0 mm
22:34 21.6 °C 11.0 °C 1015.8 hPa WSW 5.6 km/h 5.6 km/h 51 % 0.0 mm
22:39 21.4 °C 10.8 °C 1015.8 hPa Calm     51 % 0.0 mm
22:40 18.3 °C 14.0 °C 1015.8 hPa NNE 1.6 km/h 4.8 km/h 76 % 0.0 mm
22:44 21.3 °C 10.7 °C 1015.8 hPa NNE 3.7 km/h 3.7 km/h 51 % 0.0 mm
22:49 21.2 °C 10.7 °C 1015.8 hPa NNW 1.9 km/h   51 % 0.0 mm
22:50 18.2 °C 13.9 °C 1016.8 hPa NE 1.6 km/h 4.8 km/h 76 % 0.0 mm
22:54 21.1 °C 10.6 °C 1015.8 hPa West 3.9 km/h 3.9 km/h 51 % 0.0 mm
22:59 21.0 °C 10.5 °C 1015.8 hPa WSW 2.6 km/h   51 % 0.0 mm
23:00 18.0 °C 13.5 °C 1016.8 hPa Calm   3.2 km/h 75 % 0.0 mm
23:04 20.9 °C 10.7 °C 1015.8 hPa SW 4.7 km/h   52 % 0.0 mm
23:09 20.5 °C 10.3 °C 1015.8 hPa SW 5.6 km/h 5.6 km/h 52 % 0.0 mm
23:10 17.9 °C 13.2 °C 1016.8 hPa NE 1.6 km/h 3.2 km/h 74 % 0.0 mm
23:15 20.4 °C 10.5 °C 1015.8 hPa WSW 3.7 km/h 3.9 km/h 53 % 0.0 mm
23:20 20.3 °C 10.4 °C 1015.8 hPa WSW 5.6 km/h 5.6 km/h 53 % 0.0 mm
23:25 20.3 °C 10.4 °C 1015.8 hPa WSW 3.7 km/h 3.7 km/h 53 % 0.0 mm
23:30 20.2 °C 10.3 °C 1015.8 hPa WSW 1.9 km/h   53 % 0.0 mm
23:35 20.2 °C 10.3 °C 1015.8 hPa WNW 1.9 km/h   53 % 0.0 mm
23:40 20.1 °C 10.5 °C 1015.8 hPa WNW 1.9 km/h   54 % 0.0 mm
23:45 20.1 °C 10.5 °C 1015.8 hPa Calm     54 % 0.0 mm
23:50 20.1 °C 10.5 °C 1015.8 hPa Calm     54 % 0.0 mm
23:55 20.1 °C 10.5 °C 1015.8 hPa Calm     54 % 0.0 mm
Meteo Sesrovires
Elogis d' Weather Underground - 3.5 mb

Guio original per  Jim McMurry - jmcmurry@mwt.net Adaptat per a la plantilla per  Wim van der Kuil - Leuven-Template.eu

Trobareu la nostra informacio del temps tambe a:

Weather Underground

AWEKAS